createdAt,value
2022-07-31T00:00:27.126Z,22.83
2022-07-31T00:02:53.551Z,22.97
2022-07-31T00:05:20.086Z,22.74
2022-07-31T00:07:46.518Z,22.68
2022-07-31T00:10:13.100Z,22.67
2022-07-31T00:12:39.511Z,22.70
2022-07-31T00:15:08.062Z,22.54
2022-07-31T00:17:34.714Z,22.37
2022-07-31T00:20:02.057Z,22.47
2022-07-31T00:22:28.587Z,22.41
2022-07-31T00:24:55.021Z,22.35
2022-07-31T00:27:21.652Z,22.41
2022-07-31T00:29:48.045Z,22.34
2022-07-31T00:32:14.453Z,22.30
2022-07-31T00:34:42.387Z,22.34
2022-07-31T00:37:09.967Z,22.39
2022-07-31T00:39:37.023Z,22.54
2022-07-31T00:42:03.703Z,22.45
2022-07-31T00:44:30.107Z,22.53
2022-07-31T00:46:57.951Z,22.34
2022-07-31T00:49:24.673Z,22.15
2022-07-31T00:51:51.800Z,22.25
2022-07-31T00:54:22.463Z,22.11
2022-07-31T00:56:49.494Z,22.07
2022-07-31T00:59:15.985Z,22.12
2022-07-31T01:01:44.309Z,22.16
2022-07-31T01:04:15.417Z,22.27
2022-07-31T01:06:42.771Z,22.15
2022-07-31T01:09:09.410Z,22.07
2022-07-31T01:11:50.581Z,22.18
2022-07-31T01:14:21.909Z,22.08
2022-07-31T01:16:51.547Z,21.88
2022-07-31T01:19:37.913Z,21.90
2022-07-31T01:22:34.099Z,21.91
2022-07-31T01:25:28.807Z,21.82
2022-07-31T01:28:33.117Z,21.75
2022-07-31T01:31:26.072Z,21.62
2022-07-31T01:34:02.574Z,21.48
2022-07-31T01:36:34.754Z,21.49
2022-07-31T01:39:02.389Z,21.06
2022-07-31T01:41:33.863Z,20.73
2022-07-31T01:44:03.275Z,20.82
2022-07-31T01:46:31.010Z,20.75
2022-07-31T01:49:05.273Z,20.58
2022-07-31T01:51:32.719Z,20.56
2022-07-31T01:54:01.627Z,20.64
2022-07-31T01:56:29.891Z,20.99
2022-07-31T01:58:57.914Z,20.84
2022-07-31T02:01:27.404Z,20.89
2022-07-31T02:03:56.326Z,20.86
2022-07-31T02:06:24.874Z,20.67
2022-07-31T02:08:53.813Z,20.74
2022-07-31T02:11:21.237Z,20.82
2022-07-31T02:13:49.378Z,20.86
2022-07-31T02:16:18.261Z,20.87
2022-07-31T02:18:49.487Z,20.85
2022-07-31T02:21:17.162Z,20.72
2022-07-31T02:23:43.848Z,20.65
2022-07-31T02:26:11.238Z,20.67
2022-07-31T02:28:41.861Z,20.60
2022-07-31T02:31:12.641Z,20.62
2022-07-31T02:33:42.552Z,20.51
2022-07-31T02:36:12.110Z,20.30
2022-07-31T02:38:39.819Z,20.33
2022-07-31T02:41:07.592Z,20.14
2022-07-31T02:43:35.474Z,20.20
2022-07-31T02:46:03.486Z,20.27
2022-07-31T02:48:30.194Z,20.34
2022-07-31T02:50:57.520Z,20.30
2022-07-31T02:53:24.665Z,20.27
2022-07-31T02:55:51.742Z,20.26
2022-07-31T02:58:18.251Z,20.39
2022-07-31T03:00:45.782Z,20.23
2022-07-31T03:03:12.458Z,20.13
2022-07-31T03:05:38.966Z,20.17
2022-07-31T03:08:05.569Z,20.20
2022-07-31T03:10:31.978Z,20.20
2022-07-31T03:12:59.533Z,20.19
2022-07-31T03:15:27.172Z,20.08
2022-07-31T03:17:54.995Z,20.10
2022-07-31T03:20:23.901Z,19.97
2022-07-31T03:22:51.239Z,20.01
2022-07-31T03:25:21.487Z,20.01
2022-07-31T03:27:55.579Z,20.08
2022-07-31T03:30:26.543Z,20.11
2022-07-31T03:32:54.243Z,20.15
2022-07-31T03:35:20.941Z,19.88
2022-07-31T03:37:47.354Z,19.88
2022-07-31T03:40:14.325Z,20.06
2022-07-31T03:42:41.860Z,19.98
2022-07-31T03:45:10.895Z,19.83
2022-07-31T03:47:37.722Z,20.07
2022-07-31T03:50:06.314Z,20.09
2022-07-31T03:52:32.827Z,20.08
2022-07-31T03:54:59.499Z,20.16
2022-07-31T03:57:29.151Z,20.24
2022-07-31T04:00:00.782Z,20.16
2022-07-31T04:02:28.161Z,20.19
2022-07-31T04:04:55.131Z,20.25
2022-07-31T04:07:21.562Z,20.34
2022-07-31T04:09:48.136Z,20.43
2022-07-31T04:12:14.863Z,20.31
2022-07-31T04:14:41.337Z,20.35
2022-07-31T04:17:07.927Z,20.27
2022-07-31T04:19:36.829Z,20.26
2022-07-31T04:22:04.321Z,20.27
2022-07-31T04:24:31.237Z,20.31
2022-07-31T04:26:58.467Z,20.30
2022-07-31T04:29:28.529Z,20.44
2022-07-31T04:31:55.751Z,20.49
2022-07-31T04:34:22.330Z,20.55
2022-07-31T04:36:48.788Z,20.58
2022-07-31T04:39:15.254Z,20.50
2022-07-31T04:41:41.730Z,20.57
2022-07-31T04:44:08.165Z,20.55
2022-07-31T04:46:34.599Z,20.65
2022-07-31T04:49:01.324Z,20.62
2022-07-31T04:51:27.847Z,20.48
2022-07-31T04:53:58.215Z,20.54
2022-07-31T04:56:33.616Z,20.62
2022-07-31T04:59:01.458Z,20.56
2022-07-31T05:01:27.921Z,20.59
2022-07-31T05:03:54.468Z,20.76
2022-07-31T05:06:20.886Z,20.77
2022-07-31T05:08:47.340Z,20.85
2022-07-31T05:11:23.278Z,20.84
2022-07-31T05:13:58.447Z,20.84
2022-07-31T05:16:26.184Z,20.93
2022-07-31T05:18:52.839Z,21.05
2022-07-31T05:21:19.421Z,21.08
2022-07-31T05:23:47.752Z,21.26
2022-07-31T05:26:15.813Z,21.27
2022-07-31T05:28:44.061Z,21.46
2022-07-31T05:31:13.439Z,21.48
2022-07-31T05:33:41.076Z,21.42
2022-07-31T05:36:07.684Z,21.35
2022-07-31T05:38:34.648Z,21.39
2022-07-31T05:41:01.085Z,21.44
2022-07-31T05:43:27.869Z,21.54
2022-07-31T05:45:54.700Z,21.61
2022-07-31T05:48:21.954Z,21.61
2022-07-31T05:50:49.673Z,21.74
2022-07-31T05:53:16.937Z,21.76
2022-07-31T05:55:45.345Z,21.86
2022-07-31T05:58:16.553Z,21.88
2022-07-31T06:00:45.340Z,21.93
2022-07-31T06:03:14.630Z,22.06
2022-07-31T06:05:41.254Z,21.92
2022-07-31T06:08:09.570Z,21.95
2022-07-31T06:10:37.307Z,22.02
2022-07-31T06:13:05.523Z,22.05
2022-07-31T06:15:36.072Z,22.03
2022-07-31T06:18:04.031Z,22.17
2022-07-31T06:20:30.645Z,22.23
2022-07-31T06:22:57.285Z,22.11
2022-07-31T06:25:23.772Z,22.17
2022-07-31T06:27:59.405Z,22.21
2022-07-31T06:30:27.737Z,22.17
2022-07-31T06:32:54.172Z,22.20
2022-07-31T06:35:20.689Z,22.24
2022-07-31T06:37:47.174Z,22.16
2022-07-31T06:40:14.309Z,22.40
2022-07-31T06:42:41.776Z,22.48
2022-07-31T06:45:08.959Z,22.59
2022-07-31T06:47:35.425Z,22.58
2022-07-31T06:50:02.322Z,22.63
2022-07-31T06:52:28.770Z,22.71
2022-07-31T06:54:55.239Z,22.75
2022-07-31T06:57:21.893Z,22.43
2022-07-31T06:59:48.415Z,22.60
2022-07-31T07:02:14.897Z,22.75
2022-07-31T07:05:04.729Z,22.98
2022-07-31T07:07:31.711Z,23.01
2022-07-31T07:09:58.729Z,23.20
2022-07-31T07:12:25.259Z,23.14
2022-07-31T07:14:53.383Z,23.47
2022-07-31T07:17:19.860Z,23.55
2022-07-31T07:19:46.437Z,24.04
2022-07-31T07:22:31.635Z,23.44
2022-07-31T07:24:59.744Z,23.73
2022-07-31T07:27:26.234Z,24.09
2022-07-31T07:29:52.631Z,24.37
2022-07-31T07:32:19.047Z,24.84
2022-07-31T07:34:45.464Z,24.86
2022-07-31T07:37:12.560Z,25.24
2022-07-31T07:39:38.993Z,25.33
2022-07-31T07:42:05.849Z,25.33
2022-07-31T07:44:32.442Z,25.66
2022-07-31T07:46:58.878Z,26.00
2022-07-31T07:49:25.377Z,25.76
2022-07-31T07:51:58.802Z,26.01
2022-07-31T07:54:26.820Z,25.54
2022-07-31T07:56:54.848Z,25.75
2022-07-31T07:59:21.492Z,25.84
2022-07-31T08:01:48.022Z,26.14
2022-07-31T08:04:14.402Z,25.84
2022-07-31T08:06:40.866Z,26.28
2022-07-31T08:09:07.317Z,26.10
2022-07-31T08:11:33.952Z,26.20
2022-07-31T08:14:00.380Z,26.42
2022-07-31T08:16:26.874Z,26.27
2022-07-31T08:18:54.698Z,26.48
2022-07-31T08:21:21.762Z,26.76
2022-07-31T08:23:48.366Z,26.95
2022-07-31T08:26:14.839Z,27.65
2022-07-31T08:28:41.580Z,27.64
2022-07-31T08:31:17.555Z,27.71
2022-07-31T08:33:43.964Z,27.77
2022-07-31T08:36:10.483Z,27.76
2022-07-31T08:38:37.052Z,27.90
2022-07-31T08:41:03.587Z,28.32
2022-07-31T08:43:59.811Z,27.39
2022-07-31T08:46:18.994Z,27.82
2022-07-31T08:48:46.313Z,27.74
2022-07-31T08:51:13.764Z,28.02
2022-07-31T08:53:42.461Z,27.83
2022-07-31T08:56:09.324Z,27.90
2022-07-31T08:58:39.330Z,27.70
2022-07-31T09:01:08.118Z,28.06
2022-07-31T09:03:36.004Z,27.81
2022-07-31T09:06:02.843Z,27.79
2022-07-31T09:08:34.789Z,28.14
2022-07-31T09:11:11.949Z,27.78
2022-07-31T09:13:38.677Z,27.94
2022-07-31T09:16:06.145Z,27.83
2022-07-31T09:18:33.342Z,27.80
2022-07-31T09:21:02.058Z,27.90
2022-07-31T09:23:29.662Z,28.24
2022-07-31T09:25:58.917Z,28.14
2022-07-31T09:28:33.880Z,28.38
2022-07-31T09:31:00.761Z,28.59
2022-07-31T09:33:29.622Z,28.74
2022-07-31T09:35:57.297Z,28.63
2022-07-31T09:38:32.234Z,28.79
2022-07-31T09:41:20.377Z,28.88
2022-07-31T09:44:00.973Z,28.80
2022-07-31T09:46:42.213Z,28.99
2022-07-31T09:49:09.194Z,29.27
2022-07-31T09:51:40.623Z,29.65
2022-07-31T09:54:07.443Z,29.28
2022-07-31T09:56:35.007Z,29.62
2022-07-31T09:59:02.145Z,29.32
2022-07-31T10:01:30.840Z,29.26
2022-07-31T10:04:00.347Z,29.62
2022-07-31T10:06:31.486Z,30.17
2022-07-31T10:09:00.026Z,30.07
2022-07-31T10:11:29.109Z,29.97
2022-07-31T10:13:59.869Z,29.34
2022-07-31T10:16:28.318Z,30.11
2022-07-31T10:19:00.090Z,29.78
2022-07-31T10:21:33.759Z,30.01
2022-07-31T10:24:02.733Z,29.96
2022-07-31T10:26:50.581Z,29.45
2022-07-31T10:29:17.906Z,29.70
2022-07-31T10:31:46.255Z,29.78
2022-07-31T10:34:15.639Z,30.16
2022-07-31T10:36:45.247Z,29.73
2022-07-31T10:39:24.795Z,30.05
2022-07-31T10:41:55.209Z,30.22
2022-07-31T10:44:38.507Z,30.32
2022-07-31T10:47:13.196Z,30.44
2022-07-31T10:49:40.935Z,30.17
2022-07-31T10:52:07.609Z,30.27
2022-07-31T10:54:46.630Z,30.59
2022-07-31T10:57:27.386Z,30.62
2022-07-31T10:59:54.186Z,30.84
2022-07-31T11:02:28.640Z,30.97
2022-07-31T11:05:06.796Z,31.28
2022-07-31T11:07:33.271Z,31.61
2022-07-31T11:10:14.297Z,32.02
2022-07-31T11:12:41.140Z,32.07
2022-07-31T11:15:22.038Z,32.29
2022-07-31T11:18:20.166Z,31.99
2022-07-31T11:20:35.774Z,31.81
2022-07-31T11:23:05.389Z,31.90
2022-07-31T11:25:34.920Z,31.53
2022-07-31T11:28:10.474Z,31.27
2022-07-31T11:30:49.881Z,31.23
2022-07-31T11:33:16.724Z,31.27
2022-07-31T11:35:43.169Z,31.51
2022-07-31T11:38:09.647Z,31.52
2022-07-31T11:40:36.566Z,31.44
2022-07-31T11:43:25.780Z,31.53
2022-07-31T11:45:54.878Z,31.64
2022-07-31T11:48:24.559Z,31.67
2022-07-31T11:50:53.765Z,31.85
2022-07-31T11:53:21.292Z,31.97
2022-07-31T11:55:53.851Z,31.76
2022-07-31T11:58:22.224Z,31.63
2022-07-31T12:01:01.601Z,31.79
2022-07-31T12:03:36.655Z,31.83
2022-07-31T12:06:04.095Z,31.54
2022-07-31T12:08:30.851Z,31.43
2022-07-31T12:10:59.782Z,31.89
2022-07-31T12:13:27.580Z,32.10
2022-07-31T12:16:06.617Z,32.38
2022-07-31T12:18:52.814Z,32.63
2022-07-31T12:21:20.097Z,32.15
2022-07-31T12:23:49.338Z,32.33
2022-07-31T12:26:26.016Z,32.37
2022-07-31T12:29:02.742Z,32.16
2022-07-31T12:31:32.385Z,32.21
2022-07-31T12:33:58.883Z,31.87
2022-07-31T12:36:25.303Z,32.05
2022-07-31T12:39:00.395Z,32.29
2022-07-31T12:41:28.421Z,32.39
2022-07-31T12:43:55.139Z,32.43
2022-07-31T12:46:35.767Z,32.56
2022-07-31T12:49:03.221Z,32.65
2022-07-31T12:51:46.091Z,32.65
2022-07-31T12:54:16.667Z,33.32
2022-07-31T12:56:44.786Z,32.76
2022-07-31T12:59:12.062Z,32.51
2022-07-31T13:01:38.680Z,32.44
2022-07-31T13:04:08.042Z,32.39
2022-07-31T13:06:48.381Z,32.73
2022-07-31T13:09:14.817Z,32.19
2022-07-31T13:11:46.892Z,32.10
2022-07-31T13:14:16.732Z,32.15
2022-07-31T13:16:43.848Z,32.48
2022-07-31T13:19:10.576Z,32.50
2022-07-31T13:21:47.896Z,32.55
2022-07-31T13:24:19.812Z,33.00
2022-07-31T13:26:47.415Z,33.06
2022-07-31T13:29:14.155Z,33.31
2022-07-31T13:31:40.778Z,33.35
2022-07-31T13:34:07.265Z,33.18
2022-07-31T13:36:38.858Z,32.65
2022-07-31T13:39:09.417Z,32.62
2022-07-31T13:41:36.666Z,32.99
2022-07-31T13:44:06.273Z,32.83
2022-07-31T13:46:32.789Z,32.62
2022-07-31T13:48:59.686Z,32.58
2022-07-31T13:51:29.242Z,32.69
2022-07-31T13:53:56.366Z,32.98
2022-07-31T13:56:38.941Z,32.74
2022-07-31T13:59:09.320Z,32.60
2022-07-31T14:02:02.775Z,32.67
2022-07-31T14:04:23.816Z,32.42
2022-07-31T14:06:51.676Z,32.23
2022-07-31T14:09:19.237Z,32.36
2022-07-31T14:11:46.117Z,32.24
2022-07-31T14:14:14.738Z,32.28
2022-07-31T14:16:49.558Z,32.28
2022-07-31T14:19:15.991Z,32.39
2022-07-31T14:21:56.313Z,32.74
2022-07-31T14:24:24.992Z,33.00
2022-07-31T14:26:51.557Z,32.88
2022-07-31T14:29:17.973Z,33.04
2022-07-31T14:31:44.486Z,32.64
2022-07-31T14:34:10.898Z,32.95
2022-07-31T14:36:37.384Z,32.54
2022-07-31T14:39:03.821Z,32.80
2022-07-31T14:41:30.347Z,32.66
2022-07-31T14:43:56.792Z,32.55
2022-07-31T14:46:23.232Z,32.46
2022-07-31T14:48:49.737Z,32.33
2022-07-31T14:51:19.710Z,32.18
2022-07-31T14:53:47.078Z,32.42
2022-07-31T14:56:13.684Z,32.23
2022-07-31T14:58:58.583Z,32.24
2022-07-31T15:01:30.501Z,32.17
2022-07-31T15:03:57.795Z,32.24
2022-07-31T15:06:40.865Z,32.45
2022-07-31T15:09:10.892Z,32.41
2022-07-31T15:11:59.068Z,32.00
2022-07-31T15:14:23.803Z,32.02
2022-07-31T15:16:50.259Z,32.00
2022-07-31T15:19:16.750Z,31.99
2022-07-31T15:22:09.955Z,31.95
2022-07-31T15:24:33.041Z,32.04
2022-07-31T15:26:59.466Z,32.09
2022-07-31T15:29:25.911Z,32.30
2022-07-31T15:32:12.356Z,32.13
2022-07-31T15:34:39.141Z,31.95
2022-07-31T15:37:06.289Z,32.28
2022-07-31T15:39:32.933Z,32.01
2022-07-31T15:41:59.484Z,31.96
2022-07-31T15:44:26.035Z,31.96
2022-07-31T15:46:52.438Z,31.92
2022-07-31T15:49:19.099Z,32.02
2022-07-31T15:51:45.895Z,31.99
2022-07-31T15:54:12.329Z,32.03
2022-07-31T15:56:38.803Z,31.90
2022-07-31T15:59:06.321Z,31.82
2022-07-31T16:01:32.868Z,31.88
2022-07-31T16:03:59.508Z,32.13
2022-07-31T16:06:28.001Z,32.02
2022-07-31T16:08:58.669Z,31.90
2022-07-31T16:11:25.073Z,31.71
2022-07-31T16:14:11.515Z,31.60
2022-07-31T16:16:37.932Z,31.73
2022-07-31T16:19:04.383Z,31.77
2022-07-31T16:21:30.870Z,31.73
2022-07-31T16:23:57.359Z,31.81
2022-07-31T16:26:23.765Z,31.72
2022-07-31T16:28:54.022Z,31.78
2022-07-31T16:31:29.851Z,31.72
2022-07-31T16:33:57.165Z,31.72
2022-07-31T16:36:24.729Z,31.64
2022-07-31T16:39:18.622Z,31.54
2022-07-31T16:41:38.856Z,31.77
2022-07-31T16:44:21.258Z,31.83
2022-07-31T16:46:51.325Z,31.90
2022-07-31T16:49:35.681Z,31.81
2022-07-31T16:52:04.481Z,31.67
2022-07-31T16:54:30.973Z,31.63
2022-07-31T16:56:57.434Z,31.84
2022-07-31T16:59:23.970Z,31.79
2022-07-31T17:01:57.474Z,32.04
2022-07-31T17:04:26.993Z,31.99
2022-07-31T17:06:53.418Z,32.06
2022-07-31T17:09:20.032Z,31.83
2022-07-31T17:11:49.166Z,31.79
2022-07-31T17:14:17.203Z,31.98
2022-07-31T17:16:47.475Z,32.18
2022-07-31T17:19:16.077Z,32.04
2022-07-31T17:21:44.302Z,31.99
2022-07-31T17:24:15.657Z,31.79
2022-07-31T17:26:43.567Z,31.41
2022-07-31T17:29:09.988Z,31.49
2022-07-31T17:31:36.430Z,31.67
2022-07-31T17:34:07.234Z,31.25
2022-07-31T17:36:35.827Z,31.10
2022-07-31T17:39:02.302Z,31.36
2022-07-31T17:41:28.772Z,31.32
2022-07-31T17:43:55.208Z,31.37
2022-07-31T17:46:34.273Z,31.39
2022-07-31T17:49:02.836Z,31.18
2022-07-31T17:51:29.370Z,31.10
2022-07-31T17:53:59.377Z,31.04
2022-07-31T17:56:26.712Z,30.89
2022-07-31T17:58:53.824Z,30.50
2022-07-31T18:01:23.355Z,30.44
2022-07-31T18:03:52.252Z,30.25
2022-07-31T18:06:18.705Z,30.11
2022-07-31T18:08:45.155Z,30.07
2022-07-31T18:11:11.578Z,30.03
2022-07-31T18:13:47.850Z,30.06
2022-07-31T18:16:17.481Z,29.98
2022-07-31T18:18:44.198Z,30.00
2022-07-31T18:21:11.772Z,29.77
2022-07-31T18:23:43.687Z,29.93
2022-07-31T18:26:14.207Z,29.90
2022-07-31T18:28:40.735Z,29.85
2022-07-31T18:31:31.606Z,29.71
2022-07-31T18:33:53.659Z,29.61
2022-07-31T18:36:21.163Z,29.51
2022-07-31T18:38:47.858Z,29.39
2022-07-31T18:41:14.440Z,29.35
2022-07-31T18:43:40.899Z,29.36
2022-07-31T18:46:07.412Z,29.34
2022-07-31T18:48:34.303Z,29.29
2022-07-31T18:51:04.873Z,29.18
2022-07-31T18:53:32.632Z,29.15
2022-07-31T18:55:59.135Z,29.12
2022-07-31T18:58:25.589Z,28.79
2022-07-31T19:00:55.307Z,28.93
2022-07-31T19:03:23.229Z,28.86
2022-07-31T19:05:50.795Z,28.63
2022-07-31T19:08:17.216Z,28.48
2022-07-31T19:10:43.696Z,28.77
2022-07-31T19:13:18.986Z,28.99
2022-07-31T19:15:50.415Z,28.66
2022-07-31T19:18:16.913Z,28.44
2022-07-31T19:20:56.450Z,28.16
2022-07-31T19:23:27.065Z,28.35
2022-07-31T19:26:02.628Z,28.30
2022-07-31T19:28:34.726Z,28.56
2022-07-31T19:31:01.168Z,28.11
2022-07-31T19:33:27.621Z,27.93
2022-07-31T19:36:00.887Z,28.31
2022-07-31T19:38:29.491Z,27.89
2022-07-31T19:40:55.922Z,27.94
2022-07-31T19:43:22.920Z,27.55
2022-07-31T19:46:09.304Z,27.53
2022-07-31T19:48:36.614Z,27.42
2022-07-31T19:51:03.874Z,27.29
2022-07-31T19:53:30.457Z,27.18
2022-07-31T19:55:57.769Z,27.00
2022-07-31T19:58:24.392Z,26.84
2022-07-31T20:00:50.809Z,26.72
2022-07-31T20:03:17.422Z,26.60
2022-07-31T20:05:43.884Z,26.38
2022-07-31T20:08:10.417Z,26.35
2022-07-31T20:10:36.935Z,26.28
2022-07-31T20:13:03.396Z,26.07
2022-07-31T20:15:51.657Z,25.99
2022-07-31T20:18:26.706Z,25.87
2022-07-31T20:21:03.310Z,25.79
2022-07-31T20:23:30.941Z,25.59
2022-07-31T20:25:57.813Z,25.57
2022-07-31T20:28:26.153Z,25.46
2022-07-31T20:30:53.148Z,25.45
2022-07-31T20:33:19.696Z,25.20
2022-07-31T20:35:48.614Z,25.12
2022-07-31T20:38:19.483Z,25.11
2022-07-31T20:40:53.524Z,24.92
2022-07-31T20:43:26.313Z,24.78
2022-07-31T20:45:54.100Z,24.83
2022-07-31T20:48:23.743Z,24.79
2022-07-31T20:50:50.595Z,24.83
2022-07-31T20:53:17.382Z,24.83
2022-07-31T20:55:49.367Z,24.84
2022-07-31T20:58:20.206Z,24.76
2022-07-31T21:00:47.882Z,24.76
2022-07-31T21:03:15.152Z,24.78
2022-07-31T21:05:41.833Z,24.81
2022-07-31T21:08:08.281Z,24.72
2022-07-31T21:10:35.497Z,24.70
2022-07-31T21:13:01.967Z,24.78
2022-07-31T21:15:41.626Z,24.78
2022-07-31T21:18:12.729Z,24.77
2022-07-31T21:20:51.466Z,24.66
2022-07-31T21:23:24.974Z,24.46
2022-07-31T21:25:58.909Z,24.56
2022-07-31T21:28:27.874Z,24.50
2022-07-31T21:30:56.012Z,24.40
2022-07-31T21:33:26.139Z,24.27
2022-07-31T21:35:54.285Z,24.14
2022-07-31T21:38:21.545Z,24.12
2022-07-31T21:40:48.640Z,24.31
2022-07-31T21:43:18.678Z,24.14
2022-07-31T21:45:57.191Z,24.10
2022-07-31T21:48:29.673Z,24.03
2022-07-31T21:50:56.343Z,24.08
2022-07-31T21:53:23.741Z,24.26
2022-07-31T21:55:50.821Z,24.29
2022-07-31T21:58:17.682Z,24.39
2022-07-31T22:00:44.672Z,24.62
2022-07-31T22:03:11.302Z,25.05
2022-07-31T22:06:10.020Z,25.29
2022-07-31T22:08:36.565Z,25.43
2022-07-31T22:11:03.254Z,25.35
2022-07-31T22:13:29.803Z,25.10
2022-07-31T22:16:00.019Z,25.09
2022-07-31T22:18:29.238Z,24.68
2022-07-31T22:20:56.242Z,24.62
2022-07-31T22:23:23.023Z,24.49
2022-07-31T22:25:49.667Z,24.52
2022-07-31T22:28:21.805Z,24.67
2022-07-31T22:30:48.771Z,24.37
2022-07-31T22:33:15.374Z,24.43
2022-07-31T22:35:42.222Z,24.60
2022-07-31T22:38:11.280Z,24.74
2022-07-31T22:40:37.902Z,24.99
2022-07-31T22:44:09.518Z,24.88
2022-07-31T22:45:53.373Z,25.16
2022-07-31T22:48:21.717Z,25.30
2022-07-31T22:50:49.241Z,25.47
2022-07-31T22:53:15.788Z,25.20
2022-07-31T22:55:42.280Z,25.09
2022-07-31T22:58:11.244Z,24.93
2022-07-31T23:00:38.576Z,24.80
2022-07-31T23:03:05.066Z,24.72
2022-07-31T23:06:28.096Z,24.67
2022-07-31T23:08:18.059Z,24.56
2022-07-31T23:10:44.453Z,24.55
2022-07-31T23:13:10.882Z,24.52
2022-07-31T23:15:37.287Z,24.75
2022-07-31T23:18:03.917Z,24.54
2022-07-31T23:20:30.328Z,24.39
2022-07-31T23:22:56.754Z,24.30
2022-07-31T23:25:23.697Z,24.22
2022-07-31T23:27:50.128Z,24.35
2022-07-31T23:30:16.555Z,24.31
2022-07-31T23:32:43.015Z,24.78
2022-07-31T23:35:10.002Z,24.95
2022-07-31T23:37:36.675Z,25.09
2022-07-31T23:40:03.609Z,24.72
2022-07-31T23:42:38.806Z,24.84
2022-07-31T23:45:11.467Z,24.65
2022-07-31T23:47:45.493Z,24.39
2022-07-31T23:50:13.557Z,24.15
2022-07-31T23:52:40.009Z,24.10
2022-07-31T23:55:06.589Z,23.52
2022-07-31T23:57:34.773Z,23.39
